createdAt,value
2023-02-15T00:03:06.497Z,100.00
2023-02-15T00:08:12.295Z,100.00
2023-02-15T00:13:16.866Z,100.00
2023-02-15T00:18:21.284Z,100.00
2023-02-15T00:23:29.212Z,100.00
2023-02-15T00:28:34.177Z,100.00
2023-02-15T00:33:39.662Z,100.00
2023-02-15T00:38:46.191Z,100.00
2023-02-15T00:43:50.872Z,100.00
2023-02-15T00:48:55.489Z,100.00
2023-02-15T00:54:02.719Z,100.00
2023-02-15T00:59:07.797Z,100.00
2023-02-15T01:04:12.193Z,100.00
2023-02-15T01:09:18.137Z,100.00
2023-02-15T01:14:22.234Z,100.00
2023-02-15T01:19:27.529Z,100.00
2023-02-15T01:24:33.778Z,100.00
2023-02-15T01:29:41.520Z,100.00
2023-02-15T01:34:46.550Z,100.00
2023-02-15T01:39:52.706Z,100.00
2023-02-15T01:44:58.807Z,100.00
2023-02-15T01:50:11.210Z,100.00
2023-02-15T01:55:18.074Z,100.00
2023-02-15T02:00:24.173Z,100.00
2023-02-15T02:05:28.925Z,100.00
2023-02-15T02:10:34.968Z,100.00
2023-02-15T02:15:46.918Z,100.00
2023-02-15T02:21:38.451Z,100.00
2023-02-15T02:27:18.276Z,100.00
2023-02-15T02:33:03.771Z,100.00
2023-02-15T02:38:14.264Z,100.00
2023-02-15T02:43:41.810Z,100.00
2023-02-15T02:48:51.280Z,100.00
2023-02-15T02:54:03.783Z,100.00
2023-02-15T02:59:15.361Z,100.00
2023-02-15T03:04:25.889Z,100.00
2023-02-15T03:09:42.642Z,100.00
2023-02-15T03:14:52.018Z,100.00
2023-02-15T03:20:02.931Z,100.00
2023-02-15T03:25:17.455Z,100.00
2023-02-15T03:30:25.482Z,100.00
2023-02-15T03:35:40.362Z,100.00
2023-02-15T03:41:05.699Z,100.00
2023-02-15T03:46:20.489Z,100.00
2023-02-15T03:51:39.210Z,100.00
2023-02-15T03:57:05.332Z,100.00
2023-02-15T04:02:14.366Z,100.00
2023-02-15T04:07:20.316Z,100.00
2023-02-15T04:12:24.457Z,100.00
2023-02-15T04:17:30.004Z,100.00
2023-02-15T04:22:53.585Z,100.00
2023-02-15T04:27:59.875Z,100.00
2023-02-15T04:33:05.397Z,100.00
2023-02-15T04:38:11.224Z,100.00
2023-02-15T04:43:15.715Z,100.00
2023-02-15T04:48:20.512Z,100.00
2023-02-15T04:53:27.971Z,100.00
2023-02-15T04:58:32.865Z,100.00
2023-02-15T05:03:37.364Z,100.00
2023-02-15T05:08:43.337Z,100.00
2023-02-15T05:13:48.237Z,100.00
2023-02-15T05:18:53.683Z,100.00
2023-02-15T05:23:59.767Z,100.00
2023-02-15T05:29:04.276Z,100.00
2023-02-15T05:34:08.940Z,100.00
2023-02-15T05:39:17.864Z,100.00
2023-02-15T05:44:26.916Z,100.00
2023-02-15T05:49:32.475Z,100.00
2023-02-15T05:54:38.332Z,100.00
2023-02-15T05:59:43.258Z,100.00
2023-02-15T06:04:47.664Z,100.00
2023-02-15T06:09:53.560Z,100.00
2023-02-15T06:14:58.099Z,100.00
2023-02-15T06:20:02.607Z,100.00
2023-02-15T06:25:11.144Z,100.00
2023-02-15T06:30:16.595Z,100.00
2023-02-15T06:35:22.036Z,100.00
2023-02-15T06:40:27.935Z,100.00
2023-02-15T06:45:32.119Z,100.00
2023-02-15T06:50:37.170Z,100.00
2023-02-15T06:55:43.262Z,100.00
2023-02-15T07:00:47.643Z,100.00
2023-02-15T07:05:57.193Z,100.00
2023-02-15T07:11:17.439Z,100.00
2023-02-15T07:16:22.292Z,100.00
2023-02-15T07:21:26.908Z,100.00
2023-02-15T07:26:33.964Z,100.00
2023-02-15T07:31:38.590Z,100.00
2023-02-15T07:36:45.163Z,100.00
2023-02-15T07:41:51.145Z,100.00
2023-02-15T07:46:56.580Z,100.00
2023-02-15T07:52:03.441Z,100.00
2023-02-15T07:57:09.746Z,100.00
2023-02-15T08:02:14.338Z,100.00
2023-02-15T08:07:19.165Z,100.00
2023-02-15T08:12:25.141Z,100.00
2023-02-15T08:17:29.809Z,100.00
2023-02-15T08:22:34.289Z,100.00
2023-02-15T08:27:40.200Z,100.00
2023-02-15T08:32:44.522Z,100.00
2023-02-15T08:37:48.947Z,100.00
2023-02-15T08:42:54.879Z,100.00
2023-02-15T08:47:58.974Z,100.00
2023-02-15T08:53:04.870Z,100.00
2023-02-15T08:58:11.259Z,100.00
2023-02-15T09:03:16.175Z,100.00
2023-02-15T09:08:21.236Z,100.00
2023-02-15T09:13:27.354Z,100.00
2023-02-15T09:18:33.254Z,100.00
2023-02-15T09:23:37.630Z,100.00
2023-02-15T09:28:44.873Z,100.00
2023-02-15T09:33:52.960Z,100.00
2023-02-15T09:38:59.769Z,100.00
2023-02-15T09:44:16.790Z,100.00
2023-02-15T09:49:33.502Z,100.00
2023-02-15T09:55:09.093Z,100.00
2023-02-15T10:00:24.362Z,100.00
2023-02-15T10:05:40.397Z,100.00
2023-02-15T10:10:48.500Z,100.00
2023-02-15T10:16:09.061Z,100.00
2023-02-15T10:21:23.244Z,100.00
2023-02-15T10:26:33.384Z,100.00
2023-02-15T10:31:49.881Z,100.00
2023-02-15T10:37:14.222Z,100.00
2023-02-15T10:42:28.711Z,100.00
2023-02-15T10:47:48.552Z,100.00
2023-02-15T10:53:06.823Z,100.00
2023-02-15T10:58:19.510Z,100.00
2023-02-15T11:03:46.438Z,100.00
2023-02-15T11:08:56.303Z,97.20
2023-02-15T11:14:04.961Z,90.39
2023-02-15T11:19:16.650Z,97.70
2023-02-15T11:24:22.781Z,86.77
2023-02-15T11:29:33.702Z,87.30
2023-02-15T11:34:50.745Z,84.98
2023-02-15T11:39:58.288Z,80.91
2023-02-15T11:45:11.164Z,80.59
2023-02-15T11:56:05.179Z,80.39
2023-02-15T12:01:17.738Z,85.96
2023-02-15T12:06:27.604Z,80.96
2023-02-15T12:11:39.394Z,73.54
2023-02-15T12:16:47.427Z,62.90
2023-02-15T12:21:55.203Z,62.48
2023-02-15T12:27:03.093Z,58.00
2023-02-15T12:32:12.332Z,56.08
2023-02-15T12:37:25.076Z,52.31
2023-02-15T12:42:43.075Z,47.98
2023-02-15T12:47:49.042Z,51.56
2023-02-15T12:53:09.781Z,49.56
2023-02-15T12:58:19.725Z,53.35
2023-02-15T13:03:27.114Z,47.29
2023-02-15T13:08:35.779Z,48.57
2023-02-15T13:13:53.035Z,49.48
2023-02-15T13:18:57.477Z,49.45
2023-02-15T13:24:07.600Z,50.92
2023-02-15T13:29:20.838Z,53.53
2023-02-15T13:34:28.522Z,51.95
2023-02-15T13:39:41.352Z,50.81
2023-02-15T13:45:16.843Z,53.80
2023-02-15T13:50:36.073Z,53.67
2023-02-15T13:55:46.459Z,51.02
2023-02-15T14:01:03.508Z,53.59
2023-02-15T14:06:39.070Z,52.36
2023-02-15T14:11:53.973Z,51.92
2023-02-15T14:17:07.408Z,52.81
2023-02-15T14:22:22.849Z,51.40
2023-02-15T14:27:43.921Z,55.17
2023-02-15T14:32:50.888Z,55.44
2023-02-15T14:38:02.454Z,51.60
2023-02-15T14:43:14.071Z,52.48
2023-02-15T14:48:26.998Z,54.80
2023-02-15T14:53:39.710Z,51.50
2023-02-15T14:59:01.520Z,52.04
2023-02-15T15:04:09.897Z,52.54
2023-02-15T15:09:21.526Z,51.18
2023-02-15T15:14:44.258Z,52.49
2023-02-15T15:20:14.717Z,54.11
2023-02-15T15:25:53.795Z,54.20
2023-02-15T15:31:04.159Z,54.87
2023-02-15T15:36:30.481Z,58.59
2023-02-15T15:41:43.877Z,61.31
2023-02-15T15:47:16.961Z,68.14
2023-02-15T15:52:23.739Z,65.61
2023-02-15T15:57:31.469Z,69.19
2023-02-15T16:02:37.284Z,73.20
2023-02-15T16:07:43.581Z,72.59
2023-02-15T16:12:51.381Z,76.00
2023-02-15T16:17:59.522Z,78.19
2023-02-15T16:23:28.427Z,75.05
2023-02-15T16:28:32.849Z,72.20
2023-02-15T16:33:40.722Z,71.59
2023-02-15T16:39:09.801Z,72.14
2023-02-15T16:44:19.662Z,72.88
2023-02-15T16:49:28.389Z,72.53
2023-02-15T16:54:33.573Z,71.92
2023-02-15T16:59:43.339Z,73.71
2023-02-15T17:05:08.485Z,75.35
2023-02-15T17:10:29.113Z,76.05
2023-02-15T17:15:36.267Z,77.28
2023-02-15T17:20:44.665Z,77.38
2023-02-15T17:25:50.644Z,83.21
2023-02-15T17:30:56.763Z,80.21
2023-02-15T17:36:09.917Z,85.12
2023-02-15T17:41:14.406Z,84.56
2023-02-15T17:46:22.844Z,84.06
2023-02-15T17:51:29.356Z,84.83
2023-02-15T17:56:34.105Z,84.38
2023-02-15T18:02:10.258Z,85.34
2023-02-15T18:07:41.048Z,87.41
2023-02-15T18:12:54.015Z,86.79
2023-02-15T18:18:06.248Z,89.68
2023-02-15T18:23:14.310Z,96.77
2023-02-15T18:28:18.847Z,100.00
2023-02-15T18:33:34.395Z,100.00
2023-02-15T18:38:40.687Z,100.00
2023-02-15T18:43:45.109Z,100.00
2023-02-15T18:48:50.011Z,100.00
2023-02-15T18:53:56.117Z,100.00
2023-02-15T18:59:00.531Z,100.00
2023-02-15T19:04:04.935Z,100.00
2023-02-15T19:09:15.994Z,100.00
2023-02-15T19:14:28.855Z,100.00
2023-02-15T19:19:33.464Z,100.00
2023-02-15T19:24:42.296Z,100.00
2023-02-15T19:29:46.855Z,100.00
2023-02-15T19:34:51.288Z,100.00
2023-02-15T19:39:57.320Z,100.00
2023-02-15T19:45:02.733Z,100.00
2023-02-15T19:50:08.287Z,100.00
2023-02-15T19:55:23.448Z,100.00
2023-02-15T20:00:30.050Z,100.00
2023-02-15T20:05:38.501Z,100.00
2023-02-15T20:10:45.504Z,100.00
2023-02-15T20:15:50.910Z,100.00
2023-02-15T20:20:56.704Z,100.00
2023-02-15T20:26:08.439Z,100.00
2023-02-15T20:31:16.671Z,100.00
2023-02-15T20:36:23.218Z,100.00
2023-02-15T20:41:39.216Z,100.00
2023-02-15T20:46:43.780Z,100.00
2023-02-15T20:51:48.494Z,100.00
2023-02-15T20:56:55.359Z,100.00
2023-02-15T21:02:02.368Z,100.00
2023-02-15T21:07:06.898Z,100.00
2023-02-15T21:12:15.299Z,100.00
2023-02-15T21:17:19.653Z,100.00
2023-02-15T21:22:24.894Z,100.00
2023-02-15T21:27:30.647Z,100.00
2023-02-15T21:32:35.783Z,100.00
2023-02-15T21:37:41.906Z,100.00
2023-02-15T21:43:05.008Z,100.00
2023-02-15T21:48:09.455Z,100.00
2023-02-15T21:53:17.991Z,100.00
2023-02-15T21:58:26.358Z,100.00
2023-02-15T22:03:34.396Z,100.00
2023-02-15T22:08:38.905Z,100.00
2023-02-15T22:13:46.062Z,100.00
2023-02-15T22:18:51.159Z,100.00
2023-02-15T22:23:55.531Z,100.00
2023-02-15T22:29:01.606Z,100.00
2023-02-15T22:34:06.312Z,100.00
2023-02-15T22:39:11.320Z,100.00
2023-02-15T22:44:21.337Z,100.00
2023-02-15T22:49:25.771Z,100.00
2023-02-15T22:54:30.182Z,100.00
2023-02-15T22:59:36.349Z,100.00
2023-02-15T23:04:40.697Z,100.00
2023-02-15T23:09:45.387Z,100.00
2023-02-15T23:14:51.614Z,100.00
2023-02-15T23:19:56.144Z,100.00
2023-02-15T23:25:00.412Z,100.00
2023-02-15T23:30:13.626Z,100.00
2023-02-15T23:35:19.927Z,100.00
2023-02-15T23:40:41.663Z,100.00
2023-02-15T23:45:47.927Z,100.00
2023-02-15T23:50:52.017Z,100.00
2023-02-15T23:55:57.909Z,100.00
